sensor_id;sensor_type;location;lat;lon;timestamp;P1;durP1;ratioP1;P2;durP2;ratioP2
50309;SDS011;36207;51.850;21.698;2023-12-28T00:01:38;32.20;;;15.70;;
50309;SDS011;36207;51.850;21.698;2023-12-28T00:04:04;28.60;;;14.40;;
50309;SDS011;36207;51.850;21.698;2023-12-28T00:06:31;32.60;;;15.20;;
50309;SDS011;36207;51.850;21.698;2023-12-28T00:08:57;34.10;;;15.40;;
50309;SDS011;36207;51.850;21.698;2023-12-28T00:11:23;31.90;;;14.90;;
50309;SDS011;36207;51.850;21.698;2023-12-28T00:13:49;32.80;;;15.40;;
50309;SDS011;36207;51.850;21.698;2023-12-28T00:16:15;31.40;;;15.30;;
50309;SDS011;36207;51.850;21.698;2023-12-28T00:18:41;31.60;;;14.80;;
50309;SDS011;36207;51.850;21.698;2023-12-28T00:21:07;37.40;;;15.10;;
50309;SDS011;36207;51.850;21.698;2023-12-28T00:23:33;33.00;;;15.90;;
50309;SDS011;36207;51.850;21.698;2023-12-28T00:25:59;35.40;;;16.20;;
50309;SDS011;36207;51.850;21.698;2023-12-28T00:28:25;34.30;;;16.00;;
50309;SDS011;36207;51.850;21.698;2023-12-28T00:30:51;30.40;;;15.00;;
50309;SDS011;36207;51.850;21.698;2023-12-28T00:33:17;33.20;;;14.80;;
50309;SDS011;36207;51.850;21.698;2023-12-28T00:35:43;31.80;;;15.50;;
50309;SDS011;36207;51.850;21.698;2023-12-28T00:38:09;32.40;;;15.50;;
50309;SDS011;36207;51.850;21.698;2023-12-28T00:40:35;33.90;;;16.30;;
50309;SDS011;36207;51.850;21.698;2023-12-28T00:43:01;30.40;;;15.10;;
50309;SDS011;36207;51.850;21.698;2023-12-28T00:45:27;34.70;;;14.90;;
50309;SDS011;36207;51.850;21.698;2023-12-28T00:47:53;33.30;;;15.30;;
50309;SDS011;36207;51.850;21.698;2023-12-28T00:50:22;32.00;;;14.40;;
50309;SDS011;36207;51.850;21.698;2023-12-28T00:52:48;30.50;;;15.20;;
50309;SDS011;36207;51.850;21.698;2023-12-28T00:55:14;29.90;;;14.80;;
50309;SDS011;36207;51.850;21.698;2023-12-28T00:57:40;31.70;;;15.50;;
50309;SDS011;36207;51.850;21.698;2023-12-28T01:00:07;30.20;;;14.60;;
50309;SDS011;36207;51.850;21.698;2023-12-28T01:02:33;32.70;;;15.00;;
50309;SDS011;36207;51.850;21.698;2023-12-28T01:04:59;36.20;;;15.10;;
50309;SDS011;36207;51.850;21.698;2023-12-28T01:07:25;31.90;;;15.00;;
50309;SDS011;36207;51.850;21.698;2023-12-28T01:09:51;31.60;;;15.70;;
50309;SDS011;36207;51.850;21.698;2023-12-28T01:12:17;38.20;;;16.80;;
50309;SDS011;36207;51.850;21.698;2023-12-28T01:14:43;38.50;;;16.40;;
50309;SDS011;36207;51.850;21.698;2023-12-28T01:17:09;34.20;;;17.10;;
50309;SDS011;36207;51.850;21.698;2023-12-28T01:19:35;39.70;;;16.70;;
50309;SDS011;36207;51.850;21.698;2023-12-28T01:22:01;35.20;;;16.80;;
50309;SDS011;36207;51.850;21.698;2023-12-28T01:24:28;33.60;;;16.80;;
50309;SDS011;36207;51.850;21.698;2023-12-28T01:26:54;34.30;;;16.70;;
50309;SDS011;36207;51.850;21.698;2023-12-28T01:29:20;34.70;;;16.30;;
50309;SDS011;36207;51.850;21.698;2023-12-28T01:31:46;34.50;;;15.90;;
50309;SDS011;36207;51.850;21.698;2023-12-28T01:34:12;35.20;;;16.20;;
50309;SDS011;36207;51.850;21.698;2023-12-28T01:36:38;33.80;;;16.40;;
50309;SDS011;36207;51.850;21.698;2023-12-28T01:39:07;34.00;;;16.30;;
50309;SDS011;36207;51.850;21.698;2023-12-28T01:41:33;31.50;;;15.30;;
50309;SDS011;36207;51.850;21.698;2023-12-28T01:43:59;32.60;;;15.40;;
50309;SDS011;36207;51.850;21.698;2023-12-28T01:46:25;33.90;;;14.80;;
50309;SDS011;36207;51.850;21.698;2023-12-28T01:48:51;32.60;;;14.90;;
50309;SDS011;36207;51.850;21.698;2023-12-28T01:51:19;32.70;;;15.80;;
50309;SDS011;36207;51.850;21.698;2023-12-28T01:53:47;33.20;;;14.70;;
50309;SDS011;36207;51.850;21.698;2023-12-28T01:56:15;32.90;;;14.70;;
50309;SDS011;36207;51.850;21.698;2023-12-28T01:58:43;28.90;;;14.40;;
50309;SDS011;36207;51.850;21.698;2023-12-28T02:01:10;32.50;;;14.90;;
50309;SDS011;36207;51.850;21.698;2023-12-28T02:03:37;33.50;;;14.90;;
50309;SDS011;36207;51.850;21.698;2023-12-28T02:06:04;27.60;;;14.00;;
50309;SDS011;36207;51.850;21.698;2023-12-28T02:08:32;32.70;;;14.10;;
50309;SDS011;36207;51.850;21.698;2023-12-28T02:10:58;31.30;;;13.70;;
50309;SDS011;36207;51.850;21.698;2023-12-28T02:13:25;30.80;;;13.70;;
50309;SDS011;36207;51.850;21.698;2023-12-28T02:15:54;27.30;;;12.80;;
50309;SDS011;36207;51.850;21.698;2023-12-28T02:18:30;32.00;;;13.10;;
50309;SDS011;36207;51.850;21.698;2023-12-28T02:21:03;26.70;;;13.40;;
50309;SDS011;36207;51.850;21.698;2023-12-28T02:23:32;29.50;;;13.30;;
50309;SDS011;36207;51.850;21.698;2023-12-28T02:25:59;28.30;;;13.50;;
50309;SDS011;36207;51.850;21.698;2023-12-28T02:28:25;28.70;;;11.80;;
50309;SDS011;36207;51.850;21.698;2023-12-28T02:30:51;30.10;;;13.50;;
50309;SDS011;36207;51.850;21.698;2023-12-28T02:33:53;27.20;;;12.60;;
50309;SDS011;36207;51.850;21.698;2023-12-28T02:36:14;31.00;;;13.60;;
50309;SDS011;36207;51.850;21.698;2023-12-28T02:38:44;26.70;;;12.10;;
50309;SDS011;36207;51.850;21.698;2023-12-28T02:41:12;27.20;;;12.50;;
50309;SDS011;36207;51.850;21.698;2023-12-28T02:43:39;25.30;;;12.30;;
50309;SDS011;36207;51.850;21.698;2023-12-28T02:46:05;29.70;;;12.60;;
50309;SDS011;36207;51.850;21.698;2023-12-28T02:48:31;27.20;;;12.20;;
50309;SDS011;36207;51.850;21.698;2023-12-28T02:50:57;30.70;;;12.50;;
50309;SDS011;36207;51.850;21.698;2023-12-28T02:53:23;31.10;;;12.50;;
50309;SDS011;36207;51.850;21.698;2023-12-28T02:55:49;27.80;;;12.20;;
50309;SDS011;36207;51.850;21.698;2023-12-28T02:58:15;28.40;;;12.00;;
50309;SDS011;36207;51.850;21.698;2023-12-28T03:00:41;28.60;;;13.00;;
50309;SDS011;36207;51.850;21.698;2023-12-28T03:03:07;29.10;;;12.50;;
50309;SDS011;36207;51.850;21.698;2023-12-28T03:05:34;29.20;;;12.00;;
50309;SDS011;36207;51.850;21.698;2023-12-28T03:08:00;30.20;;;12.60;;
50309;SDS011;36207;51.850;21.698;2023-12-28T03:10:26;30.40;;;13.00;;
50309;SDS011;36207;51.850;21.698;2023-12-28T03:12:52;22.50;;;11.90;;
50309;SDS011;36207;51.850;21.698;2023-12-28T03:15:18;29.10;;;12.40;;
50309;SDS011;36207;51.850;21.698;2023-12-28T03:17:44;28.70;;;12.10;;
50309;SDS011;36207;51.850;21.698;2023-12-28T03:20:10;27.20;;;12.90;;
50309;SDS011;36207;51.850;21.698;2023-12-28T03:22:36;24.40;;;11.10;;
50309;SDS011;36207;51.850;21.698;2023-12-28T03:25:03;26.70;;;11.20;;
50309;SDS011;36207;51.850;21.698;2023-12-28T03:27:29;26.70;;;11.40;;
50309;SDS011;36207;51.850;21.698;2023-12-28T03:29:55;26.60;;;12.20;;
50309;SDS011;36207;51.850;21.698;2023-12-28T03:32:21;24.80;;;11.60;;
50309;SDS011;36207;51.850;21.698;2023-12-28T03:34:47;24.90;;;10.50;;
50309;SDS011;36207;51.850;21.698;2023-12-28T03:37:13;27.30;;;11.10;;
50309;SDS011;36207;51.850;21.698;2023-12-28T03:39:39;23.80;;;10.70;;
50309;SDS011;36207;51.850;21.698;2023-12-28T03:42:05;25.40;;;11.70;;
50309;SDS011;36207;51.850;21.698;2023-12-28T03:44:31;24.90;;;12.10;;
50309;SDS011;36207;51.850;21.698;2023-12-28T03:46:57;25.60;;;11.30;;
50309;SDS011;36207;51.850;21.698;2023-12-28T03:49:23;27.60;;;12.00;;
50309;SDS011;36207;51.850;21.698;2023-12-28T03:51:50;25.80;;;11.90;;
50309;SDS011;36207;51.850;21.698;2023-12-28T03:54:17;26.20;;;12.60;;
50309;SDS011;36207;51.850;21.698;2023-12-28T03:56:45;24.40;;;11.70;;
50309;SDS011;36207;51.850;21.698;2023-12-28T03:59:11;24.50;;;11.80;;
50309;SDS011;36207;51.850;21.698;2023-12-28T04:01:38;24.10;;;12.50;;
50309;SDS011;36207;51.850;21.698;2023-12-28T04:04:04;26.80;;;12.90;;
50309;SDS011;36207;51.850;21.698;2023-12-28T04:06:30;24.40;;;12.90;;
50309;SDS011;36207;51.850;21.698;2023-12-28T04:08:56;26.00;;;12.20;;
50309;SDS011;36207;51.850;21.698;2023-12-28T04:11:22;25.20;;;12.60;;
50309;SDS011;36207;51.850;21.698;2023-12-28T04:13:49;26.60;;;13.00;;
50309;SDS011;36207;51.850;21.698;2023-12-28T04:16:15;23.60;;;12.30;;
50309;SDS011;36207;51.850;21.698;2023-12-28T04:18:42;26.50;;;13.30;;
50309;SDS011;36207;51.850;21.698;2023-12-28T04:21:08;27.90;;;13.50;;
50309;SDS011;36207;51.850;21.698;2023-12-28T04:23:36;27.70;;;13.30;;
50309;SDS011;36207;51.850;21.698;2023-12-28T04:26:02;28.70;;;13.50;;
50309;SDS011;36207;51.850;21.698;2023-12-28T04:28:28;28.30;;;14.30;;
50309;SDS011;36207;51.850;21.698;2023-12-28T04:30:54;28.50;;;13.60;;
50309;SDS011;36207;51.850;21.698;2023-12-28T04:33:20;27.50;;;13.30;;
50309;SDS011;36207;51.850;21.698;2023-12-28T04:35:46;30.60;;;14.50;;
50309;SDS011;36207;51.850;21.698;2023-12-28T04:38:13;28.10;;;14.00;;
50309;SDS011;36207;51.850;21.698;2023-12-28T04:40:39;30.20;;;15.00;;
50309;SDS011;36207;51.850;21.698;2023-12-28T04:43:05;28.30;;;13.90;;
50309;SDS011;36207;51.850;21.698;2023-12-28T04:45:31;26.10;;;13.50;;
50309;SDS011;36207;51.850;21.698;2023-12-28T04:47:57;26.50;;;14.40;;
50309;SDS011;36207;51.850;21.698;2023-12-28T04:50:23;30.30;;;15.00;;
50309;SDS011;36207;51.850;21.698;2023-12-28T04:52:49;30.30;;;15.20;;
50309;SDS011;36207;51.850;21.698;2023-12-28T04:55:15;28.50;;;14.90;;
50309;SDS011;36207;51.850;21.698;2023-12-28T04:57:41;28.30;;;14.60;;
50309;SDS011;36207;51.850;21.698;2023-12-28T05:00:07;28.80;;;14.50;;
50309;SDS011;36207;51.850;21.698;2023-12-28T05:02:34;32.00;;;15.20;;
50309;SDS011;36207;51.850;21.698;2023-12-28T05:05:00;28.20;;;14.80;;
50309;SDS011;36207;51.850;21.698;2023-12-28T05:07:26;28.90;;;15.10;;
50309;SDS011;36207;51.850;21.698;2023-12-28T05:09:52;29.60;;;14.90;;
50309;SDS011;36207;51.850;21.698;2023-12-28T05:12:18;29.60;;;14.20;;
50309;SDS011;36207;51.850;21.698;2023-12-28T05:14:44;29.50;;;15.60;;
50309;SDS011;36207;51.850;21.698;2023-12-28T05:17:11;31.30;;;15.80;;
50309;SDS011;36207;51.850;21.698;2023-12-28T05:19:37;25.90;;;14.30;;
50309;SDS011;36207;51.850;21.698;2023-12-28T05:22:03;30.40;;;15.40;;
50309;SDS011;36207;51.850;21.698;2023-12-28T05:24:32;28.00;;;15.10;;
50309;SDS011;36207;51.850;21.698;2023-12-28T05:26:58;28.90;;;15.00;;
50309;SDS011;36207;51.850;21.698;2023-12-28T05:29:24;28.40;;;14.70;;
50309;SDS011;36207;51.850;21.698;2023-12-28T05:31:51;28.40;;;14.20;;
50309;SDS011;36207;51.850;21.698;2023-12-28T05:34:16;29.80;;;14.90;;
50309;SDS011;36207;51.850;21.698;2023-12-28T05:36:43;28.40;;;14.90;;
50309;SDS011;36207;51.850;21.698;2023-12-28T05:39:11;28.00;;;14.40;;
50309;SDS011;36207;51.850;21.698;2023-12-28T05:41:39;30.10;;;14.50;;
50309;SDS011;36207;51.850;21.698;2023-12-28T05:44:06;35.20;;;15.90;;
50309;SDS011;36207;51.850;21.698;2023-12-28T05:46:32;29.70;;;15.90;;
50309;SDS011;36207;51.850;21.698;2023-12-28T05:48:58;31.20;;;15.90;;
50309;SDS011;36207;51.850;21.698;2023-12-28T05:51:24;28.90;;;15.40;;
50309;SDS011;36207;51.850;21.698;2023-12-28T05:53:50;32.60;;;15.80;;
50309;SDS011;36207;51.850;21.698;2023-12-28T05:56:17;29.00;;;15.00;;
50309;SDS011;36207;51.850;21.698;2023-12-28T05:58:43;30.30;;;15.30;;
50309;SDS011;36207;51.850;21.698;2023-12-28T06:01:09;29.20;;;15.00;;
50309;SDS011;36207;51.850;21.698;2023-12-28T06:03:35;29.10;;;15.90;;
50309;SDS011;36207;51.850;21.698;2023-12-28T06:06:01;27.40;;;15.40;;
50309;SDS011;36207;51.850;21.698;2023-12-28T06:08:27;31.20;;;15.50;;
50309;SDS011;36207;51.850;21.698;2023-12-28T06:10:53;31.40;;;15.70;;
50309;SDS011;36207;51.850;21.698;2023-12-28T06:13:19;30.20;;;16.00;;
50309;SDS011;36207;51.850;21.698;2023-12-28T06:15:45;31.40;;;15.90;;
50309;SDS011;36207;51.850;21.698;2023-12-28T06:18:11;31.10;;;16.50;;
50309;SDS011;36207;51.850;21.698;2023-12-28T06:20:37;29.60;;;14.90;;
50309;SDS011;36207;51.850;21.698;2023-12-28T06:23:03;29.70;;;15.40;;
50309;SDS011;36207;51.850;21.698;2023-12-28T06:25:29;27.10;;;14.80;;
50309;SDS011;36207;51.850;21.698;2023-12-28T06:27:55;30.30;;;15.40;;
50309;SDS011;36207;51.850;21.698;2023-12-28T06:30:21;30.30;;;15.20;;
50309;SDS011;36207;51.850;21.698;2023-12-28T06:32:47;27.90;;;15.40;;
50309;SDS011;36207;51.850;21.698;2023-12-28T06:35:15;28.60;;;15.70;;
50309;SDS011;36207;51.850;21.698;2023-12-28T06:37:41;29.70;;;15.90;;
50309;SDS011;36207;51.850;21.698;2023-12-28T06:40:09;27.70;;;15.30;;
50309;SDS011;36207;51.850;21.698;2023-12-28T06:42:35;28.20;;;14.70;;
50309;SDS011;36207;51.850;21.698;2023-12-28T06:45:01;29.30;;;15.00;;
50309;SDS011;36207;51.850;21.698;2023-12-28T06:47:27;31.40;;;15.60;;
50309;SDS011;36207;51.850;21.698;2023-12-28T06:49:53;25.60;;;14.20;;
50309;SDS011;36207;51.850;21.698;2023-12-28T06:52:19;33.70;;;15.20;;
50309;SDS011;36207;51.850;21.698;2023-12-28T06:54:45;31.30;;;14.70;;
50309;SDS011;36207;51.850;21.698;2023-12-28T06:57:11;30.40;;;14.60;;
50309;SDS011;36207;51.850;21.698;2023-12-28T06:59:37;29.40;;;15.10;;
50309;SDS011;36207;51.850;21.698;2023-12-28T07:02:03;27.00;;;14.50;;
50309;SDS011;36207;51.850;21.698;2023-12-28T07:04:29;28.50;;;15.50;;
50309;SDS011;36207;51.850;21.698;2023-12-28T07:06:55;31.90;;;16.50;;
50309;SDS011;36207;51.850;21.698;2023-12-28T07:09:21;28.70;;;15.80;;
50309;SDS011;36207;51.850;21.698;2023-12-28T07:11:47;28.20;;;15.60;;
50309;SDS011;36207;51.850;21.698;2023-12-28T07:14:13;27.80;;;15.40;;
50309;SDS011;36207;51.850;21.698;2023-12-28T07:16:39;28.90;;;14.80;;
50309;SDS011;36207;51.850;21.698;2023-12-28T07:19:05;26.60;;;14.70;;
50309;SDS011;36207;51.850;21.698;2023-12-28T07:21:31;28.20;;;14.60;;
50309;SDS011;36207;51.850;21.698;2023-12-28T07:23:57;27.70;;;14.90;;
50309;SDS011;36207;51.850;21.698;2023-12-28T07:26:23;27.50;;;14.80;;
50309;SDS011;36207;51.850;21.698;2023-12-28T07:28:50;27.50;;;14.60;;
50309;SDS011;36207;51.850;21.698;2023-12-28T07:31:24;28.00;;;14.80;;
50309;SDS011;36207;51.850;21.698;2023-12-28T07:33:51;29.80;;;15.00;;
50309;SDS011;36207;51.850;21.698;2023-12-28T07:36:17;29.30;;;14.40;;
50309;SDS011;36207;51.850;21.698;2023-12-28T07:38:43;27.60;;;15.20;;
50309;SDS011;36207;51.850;21.698;2023-12-28T07:41:10;27.60;;;14.90;;
50309;SDS011;36207;51.850;21.698;2023-12-28T07:43:36;26.10;;;14.10;;
50309;SDS011;36207;51.850;21.698;2023-12-28T07:46:02;29.20;;;15.60;;
50309;SDS011;36207;51.850;21.698;2023-12-28T07:48:29;26.00;;;14.80;;
50309;SDS011;36207;51.850;21.698;2023-12-28T07:51:03;28.00;;;15.00;;
50309;SDS011;36207;51.850;21.698;2023-12-28T07:53:31;25.20;;;13.90;;
50309;SDS011;36207;51.850;21.698;2023-12-28T07:55:57;26.40;;;14.10;;
50309;SDS011;36207;51.850;21.698;2023-12-28T07:58:23;24.90;;;13.60;;
50309;SDS011;36207;51.850;21.698;2023-12-28T08:00:49;26.30;;;14.00;;
50309;SDS011;36207;51.850;21.698;2023-12-28T08:03:16;25.30;;;13.90;;
50309;SDS011;36207;51.850;21.698;2023-12-28T08:05:42;25.70;;;13.90;;
50309;SDS011;36207;51.850;21.698;2023-12-28T08:08:08;27.60;;;13.30;;
50309;SDS011;36207;51.850;21.698;2023-12-28T08:10:34;23.30;;;13.10;;
50309;SDS011;36207;51.850;21.698;2023-12-28T08:13:00;27.30;;;14.20;;
50309;SDS011;36207;51.850;21.698;2023-12-28T08:15:26;22.30;;;12.80;;
50309;SDS011;36207;51.850;21.698;2023-12-28T08:17:53;23.00;;;12.80;;
50309;SDS011;36207;51.850;21.698;2023-12-28T08:20:19;23.50;;;13.20;;
50309;SDS011;36207;51.850;21.698;2023-12-28T08:22:45;24.50;;;12.30;;
50309;SDS011;36207;51.850;21.698;2023-12-28T08:25:11;21.40;;;12.70;;
50309;SDS011;36207;51.850;21.698;2023-12-28T08:27:38;23.00;;;12.50;;
50309;SDS011;36207;51.850;21.698;2023-12-28T08:30:04;23.00;;;12.70;;
50309;SDS011;36207;51.850;21.698;2023-12-28T08:32:32;21.10;;;11.80;;
50309;SDS011;36207;51.850;21.698;2023-12-28T08:34:58;20.20;;;12.20;;
50309;SDS011;36207;51.850;21.698;2023-12-28T08:37:24;20.60;;;11.70;;
50309;SDS011;36207;51.850;21.698;2023-12-28T08:39:50;22.20;;;12.40;;
50309;SDS011;36207;51.850;21.698;2023-12-28T08:42:16;22.00;;;12.00;;
50309;SDS011;36207;51.850;21.698;2023-12-28T08:44:42;21.60;;;12.00;;
50309;SDS011;36207;51.850;21.698;2023-12-28T08:47:08;19.10;;;11.50;;
50309;SDS011;36207;51.850;21.698;2023-12-28T08:49:34;21.30;;;11.30;;
50309;SDS011;36207;51.850;21.698;2023-12-28T08:52:00;20.60;;;11.90;;
50309;SDS011;36207;51.850;21.698;2023-12-28T08:54:26;21.90;;;11.20;;
50309;SDS011;36207;51.850;21.698;2023-12-28T08:56:52;20.50;;;11.50;;
50309;SDS011;36207;51.850;21.698;2023-12-28T08:59:19;20.00;;;11.60;;
50309;SDS011;36207;51.850;21.698;2023-12-28T09:01:44;23.60;;;12.20;;
50309;SDS011;36207;51.850;21.698;2023-12-28T09:04:11;19.90;;;12.00;;
50309;SDS011;36207;51.850;21.698;2023-12-28T09:06:37;22.60;;;11.40;;
50309;SDS011;36207;51.850;21.698;2023-12-28T09:09:03;21.90;;;12.20;;
50309;SDS011;36207;51.850;21.698;2023-12-28T09:11:29;19.70;;;11.50;;
50309;SDS011;36207;51.850;21.698;2023-12-28T09:13:55;19.80;;;11.50;;
50309;SDS011;36207;51.850;21.698;2023-12-28T09:16:21;21.00;;;11.60;;
50309;SDS011;36207;51.850;21.698;2023-12-28T09:18:47;20.40;;;11.80;;
50309;SDS011;36207;51.850;21.698;2023-12-28T09:21:13;20.90;;;11.70;;
50309;SDS011;36207;51.850;21.698;2023-12-28T09:23:40;20.20;;;12.00;;
50309;SDS011;36207;51.850;21.698;2023-12-28T09:26:07;21.40;;;11.80;;
50309;SDS011;36207;51.850;21.698;2023-12-28T09:28:33;19.30;;;11.70;;
50309;SDS011;36207;51.850;21.698;2023-12-28T09:31:01;20.20;;;12.00;;
50309;SDS011;36207;51.850;21.698;2023-12-28T09:33:28;19.20;;;11.10;;
50309;SDS011;36207;51.850;21.698;2023-12-28T09:35:54;18.10;;;11.00;;
50309;SDS011;36207;51.850;21.698;2023-12-28T09:38:20;20.30;;;11.60;;
50309;SDS011;36207;51.850;21.698;2023-12-28T09:40:50;20.20;;;12.00;;
50309;SDS011;36207;51.850;21.698;2023-12-28T09:43:25;20.50;;;12.00;;
50309;SDS011;36207;51.850;21.698;2023-12-28T09:45:55;17.50;;;11.00;;
50309;SDS011;36207;51.850;21.698;2023-12-28T09:48:21;22.70;;;11.40;;
50309;SDS011;36207;51.850;21.698;2023-12-28T09:50:49;20.30;;;11.80;;
50309;SDS011;36207;51.850;21.698;2023-12-28T09:53:23;23.80;;;12.90;;
50309;SDS011;36207;51.850;21.698;2023-12-28T09:55:51;21.80;;;11.80;;
50309;SDS011;36207;51.850;21.698;2023-12-28T09:58:17;23.10;;;12.80;;
50309;SDS011;36207;51.850;21.698;2023-12-28T10:00:45;23.10;;;12.50;;
50309;SDS011;36207;51.850;21.698;2023-12-28T10:03:13;21.60;;;12.00;;
50309;SDS011;36207;51.850;21.698;2023-12-28T10:05:40;19.20;;;11.30;;
50309;SDS011;36207;51.850;21.698;2023-12-28T10:08:08;18.90;;;11.00;;
50309;SDS011;36207;51.850;21.698;2023-12-28T10:10:34;22.60;;;12.20;;
50309;SDS011;36207;51.850;21.698;2023-12-28T10:13:00;19.00;;;11.30;;
50309;SDS011;36207;51.850;21.698;2023-12-28T10:15:27;21.40;;;11.80;;
50309;SDS011;36207;51.850;21.698;2023-12-28T10:17:53;19.80;;;11.50;;
50309;SDS011;36207;51.850;21.698;2023-12-28T10:20:20;19.30;;;11.80;;
50309;SDS011;36207;51.850;21.698;2023-12-28T10:22:46;22.60;;;12.10;;
50309;SDS011;36207;51.850;21.698;2023-12-28T10:25:13;22.90;;;12.70;;
50309;SDS011;36207;51.850;21.698;2023-12-28T10:27:39;20.00;;;11.30;;
50309;SDS011;36207;51.850;21.698;2023-12-28T10:30:09;18.50;;;10.80;;
50309;SDS011;36207;51.850;21.698;2023-12-28T10:32:40;19.40;;;11.10;;
50309;SDS011;36207;51.850;21.698;2023-12-28T10:35:06;22.30;;;11.60;;
50309;SDS011;36207;51.850;21.698;2023-12-28T10:37:33;21.20;;;11.60;;
50309;SDS011;36207;51.850;21.698;2023-12-28T10:40:03;22.00;;;12.20;;
50309;SDS011;36207;51.850;21.698;2023-12-28T10:42:37;23.60;;;12.00;;
50309;SDS011;36207;51.850;21.698;2023-12-28T10:45:14;23.80;;;13.30;;
50309;SDS011;36207;51.850;21.698;2023-12-28T10:47:48;22.40;;;12.10;;
50309;SDS011;36207;51.850;21.698;2023-12-28T10:50:46;23.70;;;11.30;;
50309;SDS011;36207;51.850;21.698;2023-12-28T10:53:19;22.40;;;11.90;;
50309;SDS011;36207;51.850;21.698;2023-12-28T10:58:52;20.50;;;11.50;;
50309;SDS011;36207;51.850;21.698;2023-12-28T11:01:26;21.60;;;11.00;;
50309;SDS011;36207;51.850;21.698;2023-12-28T11:06:46;17.60;;;10.30;;
50309;SDS011;36207;51.850;21.698;2023-12-28T11:09:15;20.30;;;11.80;;
50309;SDS011;36207;51.850;21.698;2023-12-28T11:11:43;21.30;;;10.80;;
50309;SDS011;36207;51.850;21.698;2023-12-28T11:14:10;20.00;;;10.50;;
50309;SDS011;36207;51.850;21.698;2023-12-28T11:16:37;18.30;;;9.80;;
50309;SDS011;36207;51.850;21.698;2023-12-28T11:19:05;16.80;;;9.40;;
50309;SDS011;36207;51.850;21.698;2023-12-28T11:21:32;18.10;;;9.50;;
50309;SDS011;36207;51.850;21.698;2023-12-28T11:23:59;15.60;;;9.30;;
50309;SDS011;36207;51.850;21.698;2023-12-28T11:26:26;16.30;;;9.10;;
50309;SDS011;36207;51.850;21.698;2023-12-28T11:29:03;16.30;;;9.30;;
50309;SDS011;36207;51.850;21.698;2023-12-28T11:31:33;15.60;;;8.60;;
50309;SDS011;36207;51.850;21.698;2023-12-28T11:34:05;15.80;;;8.80;;
50309;SDS011;36207;51.850;21.698;2023-12-28T11:36:38;13.70;;;8.00;;
50309;SDS011;36207;51.850;21.698;2023-12-28T11:39:09;15.60;;;8.10;;
50309;SDS011;36207;51.850;21.698;2023-12-28T11:41:36;14.10;;;8.30;;
50309;SDS011;36207;51.850;21.698;2023-12-28T11:44:02;16.30;;;8.80;;
50309;SDS011;36207;51.850;21.698;2023-12-28T11:46:31;16.20;;;8.80;;
50309;SDS011;36207;51.850;21.698;2023-12-28T11:49:07;17.00;;;8.90;;
50309;SDS011;36207;51.850;21.698;2023-12-28T11:51:35;15.40;;;8.90;;
50309;SDS011;36207;51.850;21.698;2023-12-28T11:54:03;16.70;;;8.30;;
50309;SDS011;36207;51.850;21.698;2023-12-28T11:56:30;13.40;;;8.00;;
50309;SDS011;36207;51.850;21.698;2023-12-28T11:58:57;14.50;;;8.30;;
50309;SDS011;36207;51.850;21.698;2023-12-28T12:01:24;14.60;;;8.30;;
50309;SDS011;36207;51.850;21.698;2023-12-28T12:03:50;13.50;;;8.00;;
50309;SDS011;36207;51.850;21.698;2023-12-28T12:06:16;13.20;;;8.00;;
50309;SDS011;36207;51.850;21.698;2023-12-28T12:08:46;14.60;;;8.20;;
50309;SDS011;36207;51.850;21.698;2023-12-28T12:11:12;12.80;;;7.90;;
50309;SDS011;36207;51.850;21.698;2023-12-28T12:13:38;13.10;;;7.60;;
50309;SDS011;36207;51.850;21.698;2023-12-28T12:16:04;14.80;;;8.00;;
50309;SDS011;36207;51.850;21.698;2023-12-28T12:18:34;12.50;;;7.70;;
50309;SDS011;36207;51.850;21.698;2023-12-28T12:21:02;15.30;;;8.60;;
50309;SDS011;36207;51.850;21.698;2023-12-28T12:23:28;17.50;;;9.20;;
50309;SDS011;36207;51.850;21.698;2023-12-28T12:25:54;13.70;;;8.20;;
50309;SDS011;36207;51.850;21.698;2023-12-28T12:28:20;13.60;;;8.40;;
50309;SDS011;36207;51.850;21.698;2023-12-28T12:30:50;14.70;;;8.00;;
50309;SDS011;36207;51.850;21.698;2023-12-28T12:33:20;14.10;;;8.00;;
50309;SDS011;36207;51.850;21.698;2023-12-28T12:35:46;14.20;;;7.90;;
50309;SDS011;36207;51.850;21.698;2023-12-28T12:38:12;14.30;;;7.90;;
50309;SDS011;36207;51.850;21.698;2023-12-28T12:40:39;13.90;;;7.50;;
50309;SDS011;36207;51.850;21.698;2023-12-28T12:43:05;17.50;;;8.10;;
50309;SDS011;36207;51.850;21.698;2023-12-28T12:45:34;13.70;;;7.90;;
50309;SDS011;36207;51.850;21.698;2023-12-28T12:48:02;13.30;;;8.00;;
50309;SDS011;36207;51.850;21.698;2023-12-28T12:50:31;14.10;;;7.90;;
50309;SDS011;36207;51.850;21.698;2023-12-28T12:53:00;14.70;;;7.60;;
50309;SDS011;36207;51.850;21.698;2023-12-28T12:55:27;11.80;;;7.60;;
50309;SDS011;36207;51.850;21.698;2023-12-28T12:57:53;13.20;;;7.50;;
50309;SDS011;36207;51.850;21.698;2023-12-28T13:00:22;13.40;;;8.00;;
50309;SDS011;36207;51.850;21.698;2023-12-28T13:02:51;15.10;;;7.70;;
50309;SDS011;36207;51.850;21.698;2023-12-28T13:05:19;14.30;;;8.60;;
50309;SDS011;36207;51.850;21.698;2023-12-28T13:07:45;19.00;;;8.30;;
50309;SDS011;36207;51.850;21.698;2023-12-28T13:10:11;17.30;;;8.60;;
50309;SDS011;36207;51.850;21.698;2023-12-28T13:12:37;17.40;;;9.40;;
50309;SDS011;36207;51.850;21.698;2023-12-28T13:15:08;16.20;;;9.20;;
50309;SDS011;36207;51.850;21.698;2023-12-28T13:17:36;16.20;;;9.00;;
50309;SDS011;36207;51.850;21.698;2023-12-28T13:20:03;15.70;;;8.60;;
50309;SDS011;36207;51.850;21.698;2023-12-28T13:22:31;15.10;;;8.90;;
50309;SDS011;36207;51.850;21.698;2023-12-28T13:24:59;15.40;;;9.00;;
50309;SDS011;36207;51.850;21.698;2023-12-28T13:27:27;16.90;;;9.30;;
50309;SDS011;36207;51.850;21.698;2023-12-28T13:29:54;20.60;;;10.00;;
50309;SDS011;36207;51.850;21.698;2023-12-28T13:32:20;19.30;;;10.10;;
50309;SDS011;36207;51.850;21.698;2023-12-28T13:34:48;17.50;;;9.40;;
50309;SDS011;36207;51.850;21.698;2023-12-28T13:37:16;18.20;;;10.20;;
50309;SDS011;36207;51.850;21.698;2023-12-28T13:39:43;19.00;;;9.40;;
50309;SDS011;36207;51.850;21.698;2023-12-28T13:42:10;16.10;;;9.80;;
50309;SDS011;36207;51.850;21.698;2023-12-28T13:44:35;16.40;;;9.70;;
50309;SDS011;36207;51.850;21.698;2023-12-28T13:47:02;16.00;;;8.70;;
50309;SDS011;36207;51.850;21.698;2023-12-28T13:49:28;15.70;;;9.30;;
50309;SDS011;36207;51.850;21.698;2023-12-28T13:51:55;18.00;;;9.10;;
50309;SDS011;36207;51.850;21.698;2023-12-28T13:54:21;18.00;;;8.80;;
50309;SDS011;36207;51.850;21.698;2023-12-28T13:56:47;16.00;;;9.70;;
50309;SDS011;36207;51.850;21.698;2023-12-28T13:59:13;18.70;;;10.10;;
50309;SDS011;36207;51.850;21.698;2023-12-28T14:01:40;18.60;;;10.00;;
50309;SDS011;36207;51.850;21.698;2023-12-28T14:04:06;20.50;;;11.00;;
50309;SDS011;36207;51.850;21.698;2023-12-28T14:06:32;20.00;;;10.00;;
50309;SDS011;36207;51.850;21.698;2023-12-28T14:08:58;17.20;;;10.00;;
50309;SDS011;36207;51.850;21.698;2023-12-28T14:11:24;15.40;;;9.40;;
50309;SDS011;36207;51.850;21.698;2023-12-28T14:13:50;20.00;;;10.20;;
50309;SDS011;36207;51.850;21.698;2023-12-28T14:16:16;17.10;;;10.10;;